Time;durP1;ratioP1;P1;durP2;ratioP2;P2;SDS_P1;SDS_P2;PMS_P1;PMS_P2;Temp;Humidity;BMP_temperature;BMP_pressure;BME280_temperature;BME280_humidity;BME280_pressure;Samples;Min_cycle;Max_cycle;Signal;HPM_P1;HPM_P2
2024/01/25 00:00:24;;;;;;;2.00;1.80;;;;;;;12.72;51.32;97045.73;105538;1256;72491;-39
2024/01/25 00:02:51;;;;;;;2.10;1.50;;;;;;;12.73;51.22;97049.68;105644;1258;62036;-37
2024/01/25 00:05:18;;;;;;;1.90;1.70;;;;;;;12.73;51.19;97047.91;105584;1254;62086;-39
2024/01/25 00:07:46;;;;;;;2.10;1.60;;;;;;;12.74;51.18;97053.69;105552;1258;74400;-39
2024/01/25 00:10:14;;;;;;;2.20;1.80;;;;;;;12.73;51.15;97045.70;105616;1258;65620;-39
2024/01/25 00:12:42;;;;;;;2.40;1.40;;;;;;;12.73;51.29;97047.36;105677;1254;70569;-39
2024/01/25 00:15:09;;;;;;;1.60;1.50;;;;;;;12.74;51.31;97051.33;105527;1258;61986;-39
2024/01/25 00:17:36;;;;;;;2.10;1.90;;;;;;;12.74;51.23;97049.39;105642;1259;62044;-39
2024/01/25 00:20:05;;;;;;;1.70;1.60;;;;;;;12.74;51.27;97054.70;105568;1258;75143;-39
2024/01/25 00:22:32;;;;;;;1.90;1.70;;;;;;;12.74;51.14;97052.02;105540;1258;64916;-39
2024/01/25 00:24:59;;;;;;;1.90;1.70;;;;;;;12.74;51.20;97047.02;105453;1254;72379;-39
2024/01/25 00:27:26;;;;;;;2.10;1.80;;;;;;;12.74;51.24;97049.04;105475;1258;61975;-40
2024/01/25 00:29:53;;;;;;;1.60;1.50;;;;;;;12.74;51.20;97051.63;105406;1254;62146;-41
2024/01/25 00:32:20;;;;;;;1.70;1.60;;;;;;;12.74;51.17;97056.85;105571;1254;75727;-41
2024/01/25 00:34:47;;;;;;;2.00;1.80;;;;;;;12.74;51.22;97052.48;105544;1258;66151;-40
2024/01/25 00:37:15;;;;;;;2.40;1.70;;;;;;;12.74;51.19;97049.48;105405;1254;72583;-40
2024/01/25 00:39:43;;;;;;;2.30;1.90;;;;;;;12.75;51.15;97051.34;105510;1254;61964;-39
2024/01/25 00:42:12;;;;;;;1.90;1.70;;;;;;;12.74;51.25;97045.65;105520;1255;62061;-38
2024/01/25 00:44:39;;;;;;;2.00;1.60;;;;;;;12.74;51.26;97047.96;105466;1258;75474;-39
2024/01/25 00:47:06;;;;;;;2.60;1.80;;;;;;;12.75;51.24;97047.07;105636;1258;65022;-39
2024/01/25 00:49:33;;;;;;;1.70;1.60;;;;;;;12.75;51.13;97045.52;105591;1254;72372;-39
2024/01/25 00:52:00;;;;;;;2.00;1.50;;;;;;;12.75;51.26;97043.20;105654;1258;62073;-38
2024/01/25 00:54:27;;;;;;;1.60;1.50;;;;;;;12.75;51.15;97042.98;105523;1254;62168;-39
2024/01/25 00:56:54;;;;;;;1.80;1.60;;;;;;;12.75;51.17;97043.30;105710;1258;75345;-38
2024/01/25 00:59:21;;;;;;;1.70;1.60;;;;;;;12.75;51.24;97041.85;105669;1259;66075;-39
2024/01/25 01:01:49;;;;;;;1.70;1.50;;;;;;;12.76;51.22;97045.94;105904;1258;72689;-39
2024/01/25 01:04:16;;;;;;;2.10;1.50;;;;;;;12.75;51.20;97039.16;105630;1258;62049;-39
2024/01/25 01:06:44;;;;;;;2.20;1.70;;;;;;;12.76;51.01;97041.20;106052;1258;62049;-39
2024/01/25 01:09:11;;;;;;;1.60;1.50;;;;;;;12.76;51.17;97039.89;105616;1258;75351;-39
2024/01/25 01:11:37;;;;;;;2.30;1.70;;;;;;;12.76;51.17;97036.14;105577;1259;66154;-40
2024/01/25 01:14:04;;;;;;;2.30;1.60;;;;;;;12.76;51.20;97039.36;105657;1254;72566;-39
2024/01/25 01:16:33;;;;;;;2.10;1.80;;;;;;;12.76;51.31;97035.15;105258;1259;62050;-41
2024/01/25 01:19:06;;;;;;;2.20;1.70;;;;;;;12.77;51.03;97037.93;105374;1256;121462;-39
2024/01/25 01:21:34;;;;;;;1.80;1.30;;;;;;;12.78;51.15;97037.09;105473;1258;74449;-39
2024/01/25 01:24:01;;;;;;;1.90;1.70;;;;;;;12.77;51.30;97035.93;105618;1254;66042;-40
2024/01/25 01:26:28;;;;;;;1.80;1.50;;;;;;;12.77;51.16;97031.94;105633;1254;72369;-38
2024/01/25 01:28:54;;;;;;;1.80;1.60;;;;;;;12.77;51.08;97034.25;105599;1258;62066;-39
2024/01/25 01:31:21;;;;;;;1.80;1.50;;;;;;;12.77;51.21;97031.56;105684;1254;62087;-39
2024/01/25 01:33:48;;;;;;;1.50;1.40;;;;;;;12.78;51.07;97029.35;105477;1254;76242;-39
2024/01/25 01:36:15;;;;;;;1.70;1.60;;;;;;;12.78;51.07;97022.90;105419;1254;66022;-39
2024/01/25 01:38:42;;;;;;;1.30;1.20;;;;;;;12.77;51.04;97020.12;105629;1254;72356;-38
2024/01/25 01:41:12;;;;;;;2.00;1.60;;;;;;;12.78;51.12;97019.67;105516;1254;62063;-39
2024/01/25 01:43:39;;;;;;;1.90;1.60;;;;;;;12.78;51.20;97016.70;105585;1254;62047;-38
2024/01/25 01:46:11;;;;;;;1.70;1.60;;;;;;;12.79;51.12;97017.87;105581;1258;74429;-40
2024/01/25 01:48:39;;;;;;;1.60;1.40;;;;;;;12.78;51.14;97017.53;105465;1254;66258;-39
2024/01/25 01:51:06;;;;;;;1.80;1.50;;;;;;;12.78;51.13;97014.86;105364;1256;73303;-39
2024/01/25 01:53:32;;;;;;;1.80;1.60;;;;;;;12.78;51.00;97011.02;105118;1261;63614;-39
2024/01/25 01:55:59;;;;;;;1.50;1.40;;;;;;;12.78;51.18;97004.35;105170;1254;62085;-39
2024/01/25 01:58:26;;;;;;;1.50;1.40;;;;;;;12.78;51.08;97008.10;105672;1254;75475;-38
2024/01/25 02:00:53;;;;;;;1.90;1.60;;;;;;;12.78;51.01;97002.50;105386;1254;65432;-39
2024/01/25 02:03:19;;;;;;;2.60;1.80;;;;;;;12.79;51.09;97001.90;105589;1254;72298;-39
2024/01/25 02:05:46;;;;;;;1.50;1.40;;;;;;;12.78;51.16;96997.89;105581;1258;62003;-39
2024/01/25 02:08:13;;;;;;;1.30;1.20;;;;;;;12.78;51.15;96998.12;105637;1256;62176;-39
2024/01/25 02:10:39;;;;;;;1.40;1.30;;;;;;;12.78;51.07;97001.50;105612;1255;75300;-39
2024/01/25 02:13:06;;;;;;;1.40;1.30;;;;;;;12.79;51.11;96998.29;105393;1254;66050;-40
2024/01/25 02:15:33;;;;;;;2.20;1.60;;;;;;;12.79;51.01;96992.85;105485;1254;72554;-39
2024/01/25 02:17:59;;;;;;;1.60;1.50;;;;;;;12.79;51.10;96982.71;105564;1258;62048;-41
2024/01/25 02:20:26;;;;;;;1.50;1.40;;;;;;;12.79;51.01;96987.04;105596;1255;62078;-38
2024/01/25 02:22:53;;;;;;;1.80;1.50;;;;;;;12.79;51.10;96982.20;105635;1258;75341;-41
2024/01/25 02:25:20;;;;;;;1.50;1.40;;;;;;;12.79;51.11;96983.48;105584;1255;65143;-38
2024/01/25 02:27:46;;;;;;;1.50;1.40;;;;;;;12.80;51.03;96985.20;105519;1256;72397;-39
2024/01/25 02:30:13;;;;;;;1.60;1.50;;;;;;;12.79;51.14;96978.88;105464;1254;61981;-40
2024/01/25 02:32:43;;;;;;;1.60;1.40;;;;;;;12.79;51.06;96982.73;105406;1254;62163;-40
2024/01/25 02:35:10;;;;;;;1.50;1.40;;;;;;;12.79;51.12;96980.59;105538;1258;75520;-40
2024/01/25 02:37:36;;;;;;;1.60;1.50;;;;;;;12.80;51.02;96983.98;105631;1254;65687;-40
2024/01/25 02:40:04;;;;;;;1.50;1.40;;;;;;;12.79;51.10;96977.05;105519;1254;72560;-39
2024/01/25 02:42:31;;;;;;;3.00;1.90;;;;;;;12.80;51.10;96980.68;105659;1256;62661;-39
2024/01/25 02:44:58;;;;;;;1.60;1.50;;;;;;;12.80;51.03;96974.67;105505;1254;62036;-39
2024/01/25 02:47:24;;;;;;;2.30;1.70;;;;;;;12.80;50.99;96974.98;105664;1258;75208;-40
2024/01/25 02:49:51;;;;;;;1.50;1.20;;;;;;;12.80;51.00;96977.02;105590;1258;61978;-38
2024/01/25 02:52:18;;;;;;;2.30;1.50;;;;;;;12.80;51.02;96977.45;105393;1254;72543;-39
2024/01/25 02:54:45;;;;;;;1.40;1.30;;;;;;;12.80;50.95;96975.15;105587;1258;62047;-39
2024/01/25 02:57:11;;;;;;;1.70;1.40;;;;;;;12.80;51.08;96975.31;105639;1254;62172;-39
2024/01/25 02:59:38;;;;;;;1.50;1.40;;;;;;;12.80;51.08;96969.40;105552;1256;75413;-39
2024/01/25 03:02:05;;;;;;;1.50;1.40;;;;;;;12.80;51.01;96972.02;105398;1259;66072;-39
2024/01/25 03:04:32;;;;;;;4.50;1.50;;;;;;;12.80;51.00;96964.73;105400;1254;72659;-39
2024/01/25 03:06:59;;;;;;;1.40;1.30;;;;;;;12.80;51.06;96967.57;105643;1255;62149;-39
2024/01/25 03:09:27;;;;;;;1.60;1.50;;;;;;;12.80;51.17;96970.09;105505;1254;62069;-39
2024/01/25 03:11:54;;;;;;;1.60;1.40;;;;;;;12.81;50.96;96966.20;105359;1256;75820;-38
2024/01/25 03:14:20;;;;;;;1.20;1.10;;;;;;;12.80;50.95;96966.50;105392;1258;65052;-39
2024/01/25 03:16:47;;;;;;;1.70;1.40;;;;;;;12.80;50.99;96963.96;105788;1254;72431;-39
2024/01/25 03:19:13;;;;;;;1.60;1.50;;;;;;;12.80;51.16;96961.20;105536;1258;62053;-39
2024/01/25 03:21:40;;;;;;;1.60;1.50;;;;;;;12.81;50.95;96962.45;105896;1254;62102;-39
2024/01/25 03:24:07;;;;;;;1.50;1.40;;;;;;;12.81;51.00;96959.54;105541;1258;75219;-37
2024/01/25 03:26:33;;;;;;;1.50;1.40;;;;;;;12.81;51.15;96961.77;105644;1258;65142;-38
2024/01/25 03:29:00;;;;;;;2.20;1.50;;;;;;;12.81;51.03;96958.84;105580;1255;72578;-38
2024/01/25 03:31:26;;;;;;;1.50;1.30;;;;;;;12.81;51.03;96958.77;105574;1258;61984;-39
2024/01/25 03:33:53;;;;;;;1.80;1.40;;;;;;;12.81;50.98;96952.40;105610;1254;62044;-39
2024/01/25 03:36:20;;;;;;;1.40;1.30;;;;;;;12.81;51.07;96953.65;105585;1254;73993;-39
2024/01/25 03:38:46;;;;;;;1.50;1.30;;;;;;;12.82;51.07;96952.56;105548;1254;65910;-39
2024/01/25 03:41:13;;;;;;;2.10;1.40;;;;;;;12.82;50.99;96950.20;105622;1254;72334;-38
2024/01/25 03:43:39;;;;;;;1.40;1.30;;;;;;;12.82;50.98;96944.44;105494;1257;62044;-39
2024/01/25 03:46:13;;;;;;;1.80;1.50;;;;;;;12.82;50.96;96944.52;105384;1254;62059;-40
2024/01/25 03:48:40;;;;;;;1.50;1.30;;;;;;;12.82;51.03;96937.60;105544;1255;75327;-40
2024/01/25 03:51:07;;;;;;;1.60;1.50;;;;;;;12.82;50.97;96940.14;105672;1258;66097;-40
2024/01/25 03:53:34;;;;;;;2.00;1.40;;;;;;;12.82;50.95;96942.98;105663;1256;72588;-40
2024/01/25 03:56:00;;;;;;;1.90;1.40;;;;;;;12.82;50.97;96939.85;105502;1258;62008;-38
2024/01/25 03:58:27;;;;;;;1.60;1.20;;;;;;;12.82;50.96;96936.30;105617;1256;62083;-39
2024/01/25 04:00:54;;;;;;;1.60;1.30;;;;;;;12.82;51.02;96935.39;105580;1256;75351;-39
2024/01/25 04:03:21;;;;;;;2.20;1.60;;;;;;;12.82;51.01;96933.40;105491;1258;66224;-39
2024/01/25 04:05:47;;;;;;;2.10;1.40;;;;;;;12.82;50.92;96931.79;105619;1255;72395;-39
2024/01/25 04:08:14;;;;;;;1.40;1.30;;;;;;;12.82;50.93;96931.15;105569;1258;62051;-40
2024/01/25 04:10:41;;;;;;;1.60;1.40;;;;;;;12.82;51.02;96930.02;105512;1256;62067;-39
2024/01/25 04:13:07;;;;;;;2.10;1.50;;;;;;;12.82;50.99;96929.70;105455;1257;75331;-40
2024/01/25 04:15:35;;;;;;;1.40;1.30;;;;;;;12.82;51.02;96927.65;105470;1258;65732;-39
2024/01/25 04:18:02;;;;;;;1.80;1.50;;;;;;;12.82;50.98;96934.31;105379;1254;72606;-39
2024/01/25 04:20:29;;;;;;;1.30;1.20;;;;;;;12.82;51.06;96939.91;105576;1258;61957;-39
2024/01/25 04:22:56;;;;;;;1.20;1.10;;;;;;;12.82;51.05;96938.02;105651;1254;62044;-39
2024/01/25 04:25:23;;;;;;;2.00;1.40;;;;;;;12.83;51.01;96939.34;105589;1258;75126;-39
2024/01/25 04:27:49;;;;;;;1.20;1.10;;;;;;;12.82;51.00;96935.45;105681;1258;66188;-40
2024/01/25 04:30:16;;;;;;;1.60;1.40;;;;;;;12.82;51.05;96934.48;105355;1256;71583;-40
2024/01/25 04:32:43;;;;;;;1.50;1.30;;;;;;;12.83;50.98;96933.88;105362;1258;62055;-40
2024/01/25 04:35:10;;;;;;;1.60;1.40;;;;;;;12.83;50.96;96937.80;105549;1255;62083;-40
2024/01/25 04:37:37;;;;;;;1.60;1.40;;;;;;;12.82;51.05;96936.17;105711;1256;75404;-40
2024/01/25 04:40:05;;;;;;;1.40;1.30;;;;;;;12.83;50.97;96935.97;105587;1258;65576;-40
2024/01/25 04:42:32;;;;;;;1.20;1.10;;;;;;;12.82;50.93;96935.17;105652;1257;72536;-40
2024/01/25 04:44:58;;;;;;;1.20;1.10;;;;;;;12.82;50.93;96936.56;105484;1258;62045;-40
2024/01/25 04:47:25;;;;;;;1.50;1.20;;;;;;;12.82;51.05;96943.40;105559;1255;62054;-40
2024/01/25 04:49:52;;;;;;;1.30;1.20;;;;;;;12.83;51.02;96942.30;105588;1255;75438;-39
2024/01/25 04:52:19;;;;;;;1.40;1.30;;;;;;;12.83;51.06;96940.48;105448;1258;66315;-39
2024/01/25 04:54:45;;;;;;;1.90;1.20;;;;;;;12.83;51.04;96944.41;105372;1256;72426;-39
2024/01/25 04:57:12;;;;;;;1.30;1.20;;;;;;;12.83;50.91;96937.95;105375;1259;62051;-41
2024/01/25 04:59:39;;;;;;;1.50;1.10;;;;;;;12.83;50.86;96941.36;105301;1256;62160;-40
2024/01/25 05:02:05;;;;;;;1.60;1.30;;;;;;;12.83;50.96;96938.12;105333;1255;75418;-38
2024/01/25 05:04:33;;;;;;;1.50;1.20;;;;;;;12.83;50.94;96935.90;105456;1256;66142;-39
2024/01/25 05:07:00;;;;;;;1.30;1.20;;;;;;;12.83;50.91;96935.89;105419;1255;72555;-38
2024/01/25 05:09:26;;;;;;;1.20;1.10;;;;;;;12.83;50.90;96940.89;105606;1254;62724;-39
2024/01/25 05:11:58;;;;;;;2.20;1.50;;;;;;;12.84;51.05;96938.05;105615;1255;62064;-39
2024/01/25 05:14:25;;;;;;;1.50;1.40;;;;;;;12.84;50.85;96934.91;105533;1258;75173;-40
2024/01/25 05:16:52;;;;;;;1.60;1.30;;;;;;;12.84;50.90;96938.66;105735;1258;66086;-40
2024/01/25 05:19:18;;;;;;;1.60;1.30;;;;;;;12.84;50.99;96945.35;105437;1256;72635;-40
2024/01/25 05:21:46;;;;;;;1.90;1.30;;;;;;;12.84;51.02;96944.73;105953;1255;61953;-39
2024/01/25 05:24:13;;;;;;;1.50;1.20;;;;;;;12.84;51.02;96938.91;105596;1256;62429;-40
2024/01/25 05:26:40;;;;;;;1.90;1.40;;;;;;;12.84;50.94;96936.30;106134;1256;75316;-40
2024/01/25 05:29:06;;;;;;;1.50;1.40;;;;;;;12.84;50.92;96942.36;105514;1258;66033;-40
2024/01/25 05:31:33;;;;;;;1.40;1.30;;;;;;;12.84;50.92;96939.83;105539;1256;72563;-40
2024/01/25 05:34:00;;;;;;;1.20;1.10;;;;;;;12.84;50.94;96935.54;105558;1258;62053;-40
2024/01/25 05:36:27;;;;;;;1.30;1.20;;;;;;;12.84;50.94;96940.75;105646;1254;62140;-38
2024/01/25 05:38:53;;;;;;;1.60;1.30;;;;;;;12.84;50.86;96935.52;105621;1255;75196;-39
2024/01/25 05:41:20;;;;;;;1.60;1.30;;;;;;;12.84;50.97;96932.38;105643;1258;65932;-39
2024/01/25 05:43:46;;;;;;;1.60;1.20;;;;;;;12.84;51.04;96931.23;105616;1258;72584;-39
2024/01/25 05:46:13;;;;;;;1.80;1.50;;;;;;;12.84;51.06;96927.54;105493;1259;62098;-39
2024/01/25 05:48:40;;;;;;;1.30;1.20;;;;;;;12.84;51.01;96928.99;105629;1256;62269;-39
2024/01/25 05:51:07;;;;;;;1.40;1.20;;;;;;;12.83;50.92;96925.09;105580;1256;75429;-39
2024/01/25 05:53:33;;;;;;;1.30;1.10;;;;;;;12.84;50.85;96925.33;105413;1256;65293;-40
2024/01/25 05:56:00;;;;;;;1.40;1.20;;;;;;;12.84;50.95;96925.64;105538;1254;72329;-37
2024/01/25 05:58:26;;;;;;;1.20;1.10;;;;;;;12.84;50.91;96926.55;105608;1259;62050;-39
2024/01/25 06:00:53;;;;;;;1.30;1.20;;;;;;;12.84;50.96;96928.55;105633;1256;62012;-39
2024/01/25 06:03:20;;;;;;;1.40;1.30;;;;;;;12.84;50.90;96927.56;105619;1254;73386;-39
2024/01/25 06:05:47;;;;;;;1.80;1.30;;;;;;;12.84;50.97;96926.73;105684;1258;66149;-39
2024/01/25 06:08:14;;;;;;;1.40;1.20;;;;;;;12.84;50.98;96925.58;105622;1255;72664;-39
2024/01/25 06:10:41;;;;;;;1.30;1.10;;;;;;;12.84;50.87;96920.95;105375;1258;62050;-39
2024/01/25 06:13:07;;;;;;;2.00;1.50;;;;;;;12.84;51.02;96918.11;105424;1257;62119;-39
2024/01/25 06:15:34;;;;;;;1.40;1.20;;;;;;;12.84;50.98;96915.27;105669;1258;75157;-39
2024/01/25 06:18:03;;;;;;;2.00;1.10;;;;;;;12.84;50.94;96916.98;105594;1259;65091;-39
2024/01/25 06:20:30;;;;;;;2.00;1.50;;;;;;;12.84;50.87;96921.40;105491;1256;72579;-38
2024/01/25 06:22:57;;;;;;;1.90;1.10;;;;;;;12.84;50.92;96920.80;105392;1259;62843;-39
2024/01/25 06:25:25;;;;;;;1.40;1.10;;;;;;;12.85;50.88;96920.36;105698;1257;62507;-39
2024/01/25 06:27:52;;;;;;;1.40;1.10;;;;;;;12.85;50.85;96920.14;105610;1258;75452;-39
2024/01/25 06:30:22;;;;;;;1.40;1.20;;;;;;;12.85;50.89;96922.29;105584;1258;66339;-39
2024/01/25 06:32:48;;;;;;;1.20;1.10;;;;;;;12.85;51.00;96919.98;105423;1256;72585;-41
2024/01/25 06:35:15;;;;;;;1.30;1.20;;;;;;;12.85;50.94;96916.54;105521;1259;62046;-40
2024/01/25 06:37:42;;;;;;;2.30;1.30;;;;;;;12.85;50.90;96919.15;105449;1254;62047;-40
2024/01/25 06:40:10;;;;;;;1.40;1.20;;;;;;;12.85;50.86;96916.85;105350;1255;75469;-40
2024/01/25 06:42:37;;;;;;;1.90;1.20;;;;;;;12.85;50.92;96919.21;105391;1256;65627;-39
2024/01/25 06:45:04;;;;;;;1.50;1.40;;;;;;;12.86;50.90;96918.16;105366;1256;72567;-40
2024/01/25 06:47:33;;;;;;;1.40;1.30;;;;;;;12.85;50.81;96918.92;105471;1258;62408;-39
2024/01/25 06:50:00;;;;;;;1.70;1.30;;;;;;;12.85;50.92;96916.09;105528;1256;62136;-40
2024/01/25 06:52:28;;;;;;;1.10;1.00;;;;;;;12.85;50.86;96916.16;105416;1256;76777;-39
2024/01/25 06:54:56;;;;;;;1.20;1.10;;;;;;;12.85;50.93;96916.52;105393;1257;64961;-38
2024/01/25 06:57:22;;;;;;;1.60;1.20;;;;;;;12.85;50.93;96918.61;105391;1258;72770;-39
2024/01/25 06:59:49;;;;;;;1.20;1.10;;;;;;;12.86;50.95;96914.77;105412;1258;62050;-38
2024/01/25 07:02:16;;;;;;;1.60;1.30;;;;;;;12.86;50.86;96914.55;105465;1255;62044;-39
2024/01/25 07:04:44;;;;;;;2.00;1.30;;;;;;;12.86;50.86;96913.64;105397;1256;74360;-40
2024/01/25 07:07:11;;;;;;;1.50;1.30;;;;;;;12.86;50.92;96916.80;105416;1258;65063;-40
2024/01/25 07:09:38;;;;;;;1.50;1.20;;;;;;;12.86;51.00;96920.94;105363;1256;71366;-40
2024/01/25 07:12:05;;;;;;;1.30;1.20;;;;;;;12.85;50.94;96917.09;105334;1256;61995;-40
2024/01/25 07:14:32;;;;;;;1.50;1.20;;;;;;;12.85;50.91;96920.00;105331;1256;62148;-39
2024/01/25 07:16:58;;;;;;;1.30;1.10;;;;;;;12.85;50.86;96916.45;105621;1258;75841;-39
2024/01/25 07:19:25;;;;;;;1.90;1.30;;;;;;;12.86;50.88;96916.92;105505;1259;65387;-39
2024/01/25 07:21:52;;;;;;;1.30;1.10;;;;;;;12.85;50.92;96916.77;105519;1257;73262;-39
2024/01/25 07:24:18;;;;;;;1.80;1.10;;;;;;;12.85;50.97;96917.63;105538;1259;62511;-39
2024/01/25 07:26:45;;;;;;;1.10;1.00;;;;;;;12.85;51.11;96920.77;105477;1256;62149;-49
2024/01/25 07:29:12;;;;;;;1.30;1.10;;;;;;;12.86;51.50;96916.16;105272;1262;75264;-40
2024/01/25 07:31:39;;;;;;;1.40;1.30;;;;;;;12.86;51.47;96916.02;107743;1256;66511;-39
2024/01/25 07:34:05;;;;;;;1.60;1.10;;;;;;;12.87;51.46;96921.83;105554;1254;73348;-40
2024/01/25 07:36:32;;;;;;;1.20;1.10;;;;;;;12.87;51.50;96925.59;107282;1253;62043;-39
2024/01/25 07:38:59;;;;;;;1.20;1.00;;;;;;;12.87;51.55;96923.97;105897;1255;62220;-40
2024/01/25 07:41:26;;;;;;;2.90;1.40;;;;;;;12.88;51.54;96926.14;105429;1259;76035;-39
2024/01/25 07:43:55;;;;;;;4.00;1.50;;;;;;;12.87;51.28;96928.52;105411;1253;66537;-39
2024/01/25 07:46:23;;;;;;;1.50;1.40;;;;;;;12.86;51.23;96922.64;105581;1254;73373;-40
2024/01/25 07:48:50;;;;;;;2.30;1.50;;;;;;;12.86;51.22;96927.38;105697;1253;61974;-39
2024/01/25 07:51:17;;;;;;;4.00;1.80;;;;;;;12.85;51.23;96932.11;105532;1253;62096;-40
2024/01/25 07:53:44;;;;;;;3.40;1.90;;;;;;;12.83;51.25;96930.30;105538;1258;76332;-40
2024/01/25 07:56:11;;;;;;;2.60;1.90;;;;;;;12.83;51.29;96933.12;105709;1259;67417;-40
2024/01/25 07:58:39;;;;;;;3.80;1.60;;;;;;;12.81;51.34;96932.14;105671;1255;73551;-40
2024/01/25 08:01:06;;;;;;;2.40;1.90;;;;;;;12.81;51.54;96930.04;105557;1259;62050;-40
2024/01/25 08:03:33;;;;;;;3.00;1.70;;;;;;;12.80;51.58;96931.09;105575;1255;62089;-40
2024/01/25 08:06:02;;;;;;;2.00;1.70;;;;;;;12.79;51.69;96928.12;105628;1259;75342;-40
2024/01/25 08:08:29;;;;;;;2.60;1.80;;;;;;;12.78;51.61;96927.65;105597;1253;67100;-40
2024/01/25 08:10:56;;;;;;;3.10;1.90;;;;;;;12.77;51.69;96922.09;105577;1254;73040;-40
2024/01/25 08:13:23;;;;;;;2.60;1.70;;;;;;;12.77;51.88;96917.54;105491;1259;63458;-41
2024/01/25 08:15:51;;;;;;;4.80;1.90;;;;;;;12.76;51.84;96919.20;105586;1253;62035;-40
2024/01/25 08:18:19;;;;;;;4.40;2.00;;;;;;;12.75;51.94;96919.34;105535;1254;76911;-41
2024/01/25 08:20:46;;;;;;;3.10;1.50;;;;;;;12.76;51.81;96919.27;105567;1259;66817;-38
2024/01/25 08:23:14;;;;;;;3.30;1.70;;;;;;;12.76;51.93;96917.21;105547;1255;73206;-40
2024/01/25 08:25:48;;;;;;;3.00;2.00;;;;;;;12.76;51.98;96915.69;106330;1254;62149;31
2024/01/25 08:28:15;;;;;;;3.10;2.10;;;;;;;12.77;52.09;96921.52;105569;1256;62150;-37
2024/01/25 08:30:42;;;;;;;1.90;1.50;;;;;;;12.79;52.31;96922.14;106195;1257;76362;-35
2024/01/25 08:33:09;;;;;;;2.60;1.80;;;;;;;12.82;52.58;96925.80;105438;1259;66234;-38
2024/01/25 09:20:26;;;;;;;;;;;;;;;13.75;53.62;96942.76;103359;1282;613300;-35
2024/01/25 10:49:37;;;;;;;2.70;1.50;;;;;;;14.31;53.95;96923.48;102626;1296;59957;-41
2024/01/25 10:52:05;;;;;;;2.10;1.60;;;;;;;14.34;53.97;96924.95;103418;1281;73288;-39
2024/01/25 10:54:32;;;;;;;2.60;1.70;;;;;;;14.36;54.01;96927.19;103520;1281;66121;-39
2024/01/25 10:56:59;;;;;;;5.80;1.70;;;;;;;14.38;53.83;96923.61;103472;1286;73035;-39
2024/01/25 10:59:27;;;;;;;4.70;1.60;;;;;;;14.39;53.74;96923.02;107135;1280;58170;-38
2024/01/25 11:01:54;;;;;;;2.70;1.50;;;;;;;14.38;53.62;96919.85;106877;1280;60114;-38
2024/01/25 11:04:21;;;;;;;2.70;1.50;;;;;;;14.39;53.21;96920.70;107148;1280;73330;-41
2024/01/25 11:06:48;;;;;;;5.50;1.50;;;;;;;14.39;53.25;96925.56;103758;1283;67728;-39
2024/01/25 11:09:19;;;;;;;2.10;1.60;;;;;;;14.40;53.39;96922.48;103514;1280;73512;-39
2024/01/25 11:11:49;;;;;;;2.50;1.60;;;;;;;14.39;53.42;96919.70;103423;1286;59774;-43
2024/01/25 11:14:19;;;;;;;3.00;1.60;;;;;;;14.38;53.38;96919.16;103540;1280;60051;-44
2024/01/25 11:16:46;;;;;;;2.70;1.60;;;;;;;14.40;53.41;96923.50;103524;1282;74087;-43
2024/01/25 11:19:20;;;;;;;3.90;2.00;;;;;;;14.41;53.44;96924.23;103745;1284;66628;-42
2024/01/25 11:21:49;;;;;;;4.00;1.50;;;;;;;14.41;53.59;96925.55;103493;1284;72515;-42
2024/01/25 11:24:17;;;;;;;1.60;1.50;;;;;;;14.42;53.62;96929.66;103654;1280;59651;-41
2024/01/25 11:26:47;;;;;;;3.00;1.70;;;;;;;14.43;53.61;96922.52;103601;1287;61404;-44
2024/01/25 11:29:17;;;;;;;3.40;1.50;;;;;;;14.43;53.56;96922.29;103767;1283;74022;-44
2024/01/25 11:31:45;;;;;;;2.30;1.50;;;;;;;14.43;53.79;96922.52;103575;1283;66183;-44
2024/01/25 11:34:12;;;;;;;2.50;1.50;;;;;;;14.42;53.75;96918.34;103828;1281;73312;-44
2024/01/25 11:36:39;;;;;;;3.00;1.60;;;;;;;14.41;53.70;96922.31;103545;1281;60510;-43
2024/01/25 11:39:06;;;;;;;2.90;1.60;;;;;;;14.41;53.89;96927.46;103868;1283;59675;-44
2024/01/25 11:41:33;;;;;;;2.60;1.50;;;;;;;14.40;53.93;96921.66;103526;1283;73007;-42
2024/01/25 11:44:02;;;;;;;2.10;1.50;;;;;;;14.41;53.91;96927.63;104234;1279;66909;-43
2024/01/25 11:46:30;;;;;;;1.90;1.40;;;;;;;14.41;54.05;96926.86;103774;1281;71867;-41
2024/01/25 11:48:58;;;;;;;1.40;1.30;;;;;;;14.41;53.95;96926.86;104143;1283;59963;-41
2024/01/25 11:51:25;;;;;;;6.30;1.60;;;;;;;14.40;54.02;96927.52;103493;1283;60220;-41
2024/01/25 11:53:52;;;;;;;6.90;1.50;;;;;;;14.40;53.87;96931.59;103558;1283;74155;-38
2024/01/25 11:56:31;;;;;;;8.00;1.50;;;;;;;14.38;54.08;96929.01;103604;1284;67339;-38
2024/01/25 11:58:57;;;;;;;5.90;1.50;;;;;;;14.37;54.07;96930.81;104083;1281;73713;-35
2024/01/25 12:01:25;;;;;;;4.90;1.50;;;;;;;14.35;54.00;96934.52;103880;1283;60029;-37
2024/01/25 12:03:52;;;;;;;8.50;1.70;;;;;;;14.32;53.91;96933.27;103719;1280;60895;-37
2024/01/25 12:06:29;;;;;;;6.40;1.60;;;;;;;14.30;53.97;96932.94;103681;1283;74059;-35
2024/01/25 12:09:06;;;;;;;6.40;1.50;;;;;;;14.28;53.96;96937.75;104187;1281;64691;-35
2024/01/25 12:11:33;;;;;;;4.10;1.50;;;;;;;14.27;53.86;96933.49;103406;1281;73646;-36
2024/01/25 12:13:59;;;;;;;3.90;1.60;;;;;;;14.26;53.77;96936.08;103915;1286;59694;-37
2024/01/25 12:16:26;;;;;;;3.20;1.60;;;;;;;14.26;53.68;96936.84;103716;1281;60053;-35
2024/01/25 12:18:53;;;;;;;3.90;1.60;;;;;;;14.25;53.52;96937.73;103391;1284;73771;-38
2024/01/25 12:21:20;;;;;;;2.60;1.80;;;;;;;14.24;53.59;96938.31;103543;1284;66067;-36
2024/01/25 12:23:47;;;;;;;4.00;1.60;;;;;;;14.23;53.57;96943.21;103442;1283;72230;-36
2024/01/25 12:26:16;;;;;;;4.40;1.60;;;;;;;14.23;53.47;96938.96;103593;1282;60073;-38
2024/01/25 12:28:44;;;;;;;3.30;1.70;;;;;;;14.22;53.47;96934.80;103558;1284;59917;-38
2024/01/25 12:31:10;;;;;;;2.30;1.60;;;;;;;14.22;53.62;96938.95;103613;1283;73610;-37
2024/01/25 12:33:37;;;;;;;1.80;1.50;;;;;;;14.22;53.67;96938.73;103343;1287;67335;-37
2024/01/25 12:36:05;;;;;;;1.60;1.30;;;;;;;14.22;53.94;96939.55;103650;1283;73149;-37
2024/01/25 12:38:34;;;;;;;5.00;1.60;;;;;;;14.22;53.99;96935.80;103696;1284;59745;-34
2024/01/25 12:41:02;;;;;;;1.90;1.60;;;;;;;14.22;54.20;96939.40;103660;1278;61188;-36
2024/01/25 12:43:29;;;;;;;2.80;1.60;;;;;;;14.21;54.24;96936.15;103750;1278;72892;-36
2024/01/25 12:45:57;;;;;;;3.30;1.50;;;;;;;14.21;54.06;96936.46;103761;1284;66597;-36
2024/01/25 12:48:35;;;;;;;2.40;1.40;;;;;;;14.21;54.09;96940.84;104421;1280;72745;-37
2024/01/25 12:51:02;;;;;;;3.10;1.60;;;;;;;14.20;54.12;96939.67;104486;1273;60095;-37
2024/01/25 12:53:29;;;;;;;2.90;1.30;;;;;;;14.20;54.02;96938.20;104364;1274;59988;-36
2024/01/25 12:55:56;;;;;;;3.10;2.00;;;;;;;14.20;53.92;96940.13;104412;1274;72734;-39
2024/01/25 12:58:23;;;;;;;4.10;1.70;;;;;;;14.20;54.01;96942.35;104424;1273;65543;-37
2024/01/25 13:00:50;;;;;;;2.50;1.50;;;;;;;14.21;53.63;96939.15;104333;1273;73692;-37
2024/01/25 13:03:17;;;;;;;2.20;1.50;;;;;;;14.23;53.44;96942.29;104436;1274;60294;-38
2024/01/25 13:05:44;;;;;;;2.00;1.30;;;;;;;14.25;53.39;96940.80;104503;1272;60312;-38
2024/01/25 13:08:11;;;;;;;1.90;1.60;;;;;;;14.26;53.60;96942.23;104447;1269;74117;-37
2024/01/25 13:10:38;;;;;;;2.00;1.60;;;;;;;14.27;53.51;96941.48;104613;1281;65013;-38
2024/01/25 13:13:05;;;;;;;2.50;1.50;;;;;;;14.28;53.62;96939.50;104447;1273;73599;-37
2024/01/25 13:15:32;;;;;;;2.10;1.50;;;;;;;14.28;53.58;96942.98;104481;1281;60102;-36
2024/01/25 13:18:00;;;;;;;3.10;1.60;;;;;;;14.29;53.81;96947.16;104405;1273;60457;-37
2024/01/25 13:20:27;;;;;;;2.60;1.50;;;;;;;14.29;53.82;96949.42;104554;1272;73812;-36
2024/01/25 13:22:54;;;;;;;2.30;1.50;;;;;;;14.29;53.96;96948.27;104548;1273;66906;-37
2024/01/25 13:25:20;;;;;;;3.40;1.40;;;;;;;14.29;54.08;96952.20;104517;1274;73466;-36
2024/01/25 13:27:47;;;;;;;2.60;1.40;;;;;;;14.30;54.06;96956.48;104391;1281;60156;-37
2024/01/25 13:30:14;;;;;;;2.20;1.50;;;;;;;14.29;54.09;96956.95;104456;1273;61848;-38
2024/01/25 13:32:41;;;;;;;2.50;1.60;;;;;;;14.29;54.19;96958.66;104552;1273;72069;-37
2024/01/25 13:35:08;;;;;;;3.80;1.80;;;;;;;14.30;54.07;96961.29;104662;1271;67233;-38